createdAt,value
2023-05-01T00:02:02.356Z,15.30
2023-05-01T00:04:29.188Z,15.30
2023-05-01T00:06:55.958Z,15.20
2023-05-01T00:09:22.792Z,15.20
2023-05-01T00:11:49.577Z,15.20
2023-05-01T00:14:16.452Z,15.20
2023-05-01T00:16:43.410Z,15.20
2023-05-01T00:19:12.830Z,15.20
2023-05-01T00:21:39.649Z,15.10
2023-05-01T00:24:06.461Z,15.10
2023-05-01T00:26:33.223Z,15.10
2023-05-01T00:29:00.020Z,15.10
2023-05-01T00:31:26.920Z,15.10
2023-05-01T00:33:53.836Z,15.10
2023-05-01T00:36:20.704Z,15.10
2023-05-01T00:38:47.764Z,15.10
2023-05-01T00:41:14.665Z,15.10
2023-05-01T00:43:41.391Z,15.10
2023-05-01T00:46:08.566Z,15.10
2023-05-01T00:48:36.029Z,15.10
2023-05-01T00:51:05.177Z,15.10
2023-05-01T00:53:34.033Z,15.00
2023-05-01T00:56:00.931Z,15.00
2023-05-01T00:58:27.870Z,15.00
2023-05-01T01:00:55.276Z,15.00
2023-05-01T01:03:22.067Z,15.00
2023-05-01T01:05:54.229Z,14.90
2023-05-01T01:08:42.589Z,14.90
2023-05-01T01:12:06.705Z,14.90
2023-05-01T01:14:40.186Z,14.90
2023-05-01T01:17:32.179Z,14.80
2023-05-01T01:20:19.394Z,14.80
2023-05-01T01:22:54.834Z,14.80
2023-05-01T01:25:54.245Z,14.80
2023-05-01T01:28:33.183Z,14.80
2023-05-01T01:31:15.359Z,14.70
2023-05-01T01:34:04.721Z,14.70
2023-05-01T01:36:37.784Z,14.70
2023-05-01T01:39:08.026Z,14.70
2023-05-01T01:41:36.137Z,14.60
2023-05-01T01:44:21.156Z,14.60
2023-05-01T01:46:50.491Z,14.60
2023-05-01T01:49:22.130Z,14.60
2023-05-01T01:51:50.270Z,14.50
2023-05-01T01:54:24.001Z,14.50
2023-05-01T01:56:51.221Z,14.50
2023-05-01T01:59:18.943Z,14.50
2023-05-01T02:01:46.547Z,14.40
2023-05-01T02:04:15.002Z,14.40
2023-05-01T02:06:42.737Z,14.40
2023-05-01T02:09:10.723Z,14.40
2023-05-01T02:11:38.154Z,14.40
2023-05-01T02:14:06.105Z,14.30
2023-05-01T02:16:34.272Z,14.30
2023-05-01T02:19:03.883Z,14.30
2023-05-01T02:21:31.158Z,14.30
2023-05-01T02:24:00.825Z,14.20
2023-05-01T02:26:29.494Z,14.20
2023-05-01T02:28:56.752Z,14.20
2023-05-01T02:31:23.562Z,14.20
2023-05-01T02:33:50.292Z,14.20
2023-05-01T02:36:17.025Z,14.20
2023-05-01T02:38:44.117Z,14.10
2023-05-01T02:41:11.545Z,14.00
2023-05-01T02:43:40.820Z,14.00
2023-05-01T02:46:08.116Z,14.00
2023-05-01T02:48:35.354Z,14.00
2023-05-01T02:51:02.573Z,14.00
2023-05-01T02:53:30.547Z,13.90
2023-05-01T02:55:57.288Z,13.90
2023-05-01T02:58:24.561Z,13.90
2023-05-01T03:00:51.552Z,13.80
2023-05-01T03:03:18.738Z,13.80
2023-05-01T03:05:45.759Z,13.80
2023-05-01T03:08:12.747Z,13.80
2023-05-01T03:10:42.660Z,13.70
2023-05-01T03:13:10.873Z,13.70
2023-05-01T03:15:38.461Z,13.70
2023-05-01T03:18:05.994Z,13.70
2023-05-01T03:20:32.771Z,13.70
2023-05-01T03:22:59.599Z,13.70
2023-05-01T03:25:26.420Z,13.70
2023-05-01T03:27:54.961Z,13.70
2023-05-01T03:30:22.116Z,13.60
2023-05-01T03:32:49.010Z,13.60
2023-05-01T03:35:16.135Z,13.50
2023-05-01T03:37:42.937Z,13.50
2023-05-01T03:40:10.069Z,13.50
2023-05-01T03:42:36.883Z,13.50
2023-05-01T03:45:03.882Z,13.40
2023-05-01T03:47:31.458Z,13.40
2023-05-01T03:49:58.374Z,13.40
2023-05-01T03:52:25.334Z,13.40
2023-05-01T03:54:52.072Z,13.40
2023-05-01T03:57:20.762Z,13.40
2023-05-01T03:59:47.551Z,13.40
2023-05-01T04:02:14.380Z,13.40
2023-05-01T04:04:41.270Z,13.30
2023-05-01T04:07:08.103Z,13.30
2023-05-01T04:09:34.874Z,13.20
2023-05-01T04:12:02.333Z,13.20
2023-05-01T04:14:29.418Z,13.20
2023-05-01T04:16:56.657Z,13.20
2023-05-01T04:19:23.429Z,13.10
2023-05-01T04:21:50.289Z,13.10
2023-05-01T04:24:17.022Z,13.10
2023-05-01T04:26:43.773Z,13.10
2023-05-01T04:29:10.623Z,13.10
2023-05-01T04:31:37.588Z,13.10
2023-05-01T04:34:04.381Z,13.10
2023-05-01T04:36:32.942Z,13.10
2023-05-01T04:38:59.713Z,13.00
2023-05-01T04:41:26.760Z,13.00
2023-05-01T04:43:53.539Z,13.00
2023-05-01T04:46:20.259Z,12.90
2023-05-01T04:48:47.032Z,12.90
2023-05-01T04:51:13.789Z,12.80
2023-05-01T04:53:40.517Z,12.80
2023-05-01T04:56:07.318Z,12.80
2023-05-01T04:58:34.125Z,12.70
2023-05-01T05:01:01.066Z,12.80
2023-05-01T05:03:28.114Z,12.80
2023-05-01T05:05:54.980Z,12.80
2023-05-01T05:08:21.789Z,12.80
2023-05-01T05:10:48.558Z,12.80
2023-05-01T05:13:15.359Z,12.70
2023-05-01T05:15:42.099Z,12.70
2023-05-01T05:18:08.910Z,12.70
2023-05-01T05:20:38.878Z,12.70
2023-05-01T05:23:07.376Z,12.70
2023-05-01T05:25:35.093Z,12.70
2023-05-01T05:28:02.144Z,12.70
2023-05-01T05:30:28.967Z,12.70
2023-05-01T05:32:55.724Z,12.70
2023-05-01T05:35:22.550Z,12.70
2023-05-01T05:37:49.325Z,12.70
2023-05-01T05:40:16.319Z,12.70
2023-05-01T05:42:43.054Z,12.70
2023-05-01T05:45:10.302Z,12.70
2023-05-01T05:47:37.331Z,12.70
2023-05-01T05:50:04.353Z,12.70
2023-05-01T05:52:31.176Z,12.70
2023-05-01T05:54:57.907Z,12.70
2023-05-01T05:57:24.813Z,12.70
2023-05-01T05:59:51.640Z,12.70
2023-05-01T06:02:18.914Z,12.70
2023-05-01T06:04:46.152Z,12.80
2023-05-01T06:07:13.113Z,12.80
2023-05-01T06:09:41.375Z,12.80
2023-05-01T06:12:08.101Z,12.80
2023-05-01T06:14:35.123Z,12.80
2023-05-01T06:17:01.893Z,12.80
2023-05-01T06:19:28.688Z,12.80
2023-05-01T06:21:55.415Z,12.80
2023-05-01T06:24:22.205Z,12.80
2023-05-01T06:26:48.965Z,12.90
2023-05-01T06:29:16.556Z,12.90
2023-05-01T06:31:43.390Z,12.90
2023-05-01T06:34:10.310Z,13.00
2023-05-01T06:36:37.210Z,13.00
2023-05-01T06:39:04.351Z,13.00
2023-05-01T06:41:32.618Z,13.10
2023-05-01T06:43:59.490Z,13.10
2023-05-01T06:46:26.456Z,13.20
2023-05-01T06:48:53.332Z,13.20
2023-05-01T06:51:20.146Z,13.20
2023-05-01T06:53:46.924Z,13.20
2023-05-01T06:56:13.735Z,13.20
2023-05-01T06:58:40.462Z,13.30
2023-05-01T07:01:07.298Z,13.30
2023-05-01T07:03:34.142Z,13.30
2023-05-01T07:06:01.008Z,13.40
2023-05-01T07:08:28.267Z,13.40
2023-05-01T07:10:55.115Z,13.50
2023-05-01T07:13:21.907Z,13.60
2023-05-01T07:15:49.134Z,13.60
2023-05-01T07:18:17.176Z,13.60
2023-05-01T07:20:43.976Z,13.70
2023-05-01T07:23:10.824Z,13.70
2023-05-01T07:25:37.793Z,13.70
2023-05-01T07:28:05.264Z,13.80
2023-05-01T07:30:33.183Z,13.80
2023-05-01T07:33:00.162Z,13.80
2023-05-01T07:35:27.498Z,13.80
2023-05-01T07:37:55.092Z,13.80
2023-05-01T07:40:21.918Z,13.90
2023-05-01T07:42:48.711Z,13.80
2023-05-01T07:45:15.540Z,13.90
2023-05-01T07:47:42.309Z,13.90
2023-05-01T07:50:13.030Z,13.90
2023-05-01T07:52:39.856Z,13.90
2023-05-01T07:55:07.442Z,13.90
2023-05-01T07:57:35.545Z,13.90
2023-05-01T08:00:02.320Z,13.90
2023-05-01T08:02:29.168Z,13.90
2023-05-01T08:04:56.061Z,13.90
2023-05-01T08:07:22.921Z,14.00
2023-05-01T08:09:49.674Z,13.90
2023-05-01T08:12:16.596Z,13.90
2023-05-01T08:14:43.396Z,14.00
2023-05-01T08:17:10.183Z,14.00
2023-05-01T08:19:36.957Z,14.10
2023-05-01T08:22:03.690Z,14.00
2023-05-01T08:24:30.779Z,14.10
2023-05-01T08:26:58.279Z,14.10
2023-05-01T08:29:25.212Z,14.10
2023-05-01T08:31:52.105Z,14.20
2023-05-01T08:34:19.034Z,14.20
2023-05-01T08:36:45.756Z,14.20
2023-05-01T08:39:12.622Z,14.30
2023-05-01T08:41:40.016Z,14.30
2023-05-01T08:44:08.935Z,14.40
2023-05-01T08:46:46.616Z,14.40
2023-05-01T08:49:15.766Z,14.40
2023-05-01T08:51:45.562Z,14.40
2023-05-01T08:54:12.706Z,14.40
2023-05-01T08:56:39.558Z,14.50
2023-05-01T08:59:09.832Z,14.50
2023-05-01T09:01:38.070Z,14.50
2023-05-01T09:04:06.308Z,14.60
2023-05-01T09:06:33.143Z,14.70
2023-05-01T09:09:00.060Z,14.70
2023-05-01T09:11:27.127Z,14.80
2023-05-01T09:13:54.072Z,14.90
2023-05-01T09:16:21.116Z,14.80
2023-05-01T09:18:47.986Z,14.90
2023-05-01T09:21:14.770Z,14.90
2023-05-01T09:23:41.772Z,15.00
2023-05-01T09:26:08.589Z,15.10
2023-05-01T09:28:45.375Z,15.20
2023-05-01T09:31:32.767Z,15.20
2023-05-01T09:34:02.002Z,15.30
2023-05-01T09:36:35.450Z,15.40
2023-05-01T09:39:02.582Z,15.50
2023-05-01T09:41:31.645Z,15.60
2023-05-01T09:44:05.816Z,15.70
2023-05-01T09:46:41.900Z,15.80
2023-05-01T09:49:08.696Z,15.90
2023-05-01T09:51:35.593Z,16.00
2023-05-01T09:54:04.455Z,16.00
2023-05-01T09:56:32.674Z,16.10
2023-05-01T09:59:15.027Z,16.10
2023-05-01T10:01:44.007Z,16.20
2023-05-01T10:04:10.875Z,16.20
2023-05-01T10:06:38.764Z,16.20
2023-05-01T10:09:08.339Z,16.30
2023-05-01T10:11:57.428Z,16.30
2023-05-01T10:14:25.684Z,16.40
2023-05-01T10:16:56.773Z,16.40
2023-05-01T10:19:23.632Z,16.60
2023-05-01T10:21:50.587Z,16.60
2023-05-01T10:24:18.388Z,16.80
2023-05-01T10:26:48.752Z,16.90
2023-05-01T10:29:15.765Z,16.90
2023-05-01T10:31:42.919Z,16.90
2023-05-01T10:34:11.604Z,17.00
2023-05-01T10:37:03.142Z,17.20
2023-05-01T10:39:34.514Z,17.20
2023-05-01T10:42:03.814Z,17.30
2023-05-01T10:44:31.840Z,17.40
2023-05-01T10:46:58.783Z,17.40
2023-05-01T10:49:25.794Z,17.40
2023-05-01T10:51:59.599Z,17.40
2023-05-01T10:54:27.977Z,17.40
2023-05-01T10:57:00.049Z,17.50
2023-05-01T10:59:28.087Z,17.70
2023-05-01T11:01:55.194Z,17.80
2023-05-01T11:04:22.078Z,17.90
2023-05-01T11:07:16.213Z,18.00
2023-05-01T11:09:54.766Z,18.10
2023-05-01T11:12:46.586Z,18.20
2023-05-01T11:15:25.594Z,18.30
2023-05-01T11:17:52.695Z,18.30
2023-05-01T11:20:25.311Z,18.40
2023-05-01T11:22:53.640Z,18.50
2023-05-01T11:25:22.128Z,18.70
2023-05-01T11:27:49.929Z,18.80
2023-05-01T11:30:17.313Z,18.70
2023-05-01T11:32:46.235Z,18.80
2023-05-01T11:35:19.638Z,18.70
2023-05-01T11:37:46.887Z,18.80
2023-05-01T11:40:27.294Z,18.90
2023-05-01T11:43:00.538Z,18.90
2023-05-01T11:45:27.415Z,18.80
2023-05-01T11:47:54.385Z,18.80
2023-05-01T11:50:23.998Z,18.90
2023-05-01T11:52:54.667Z,18.90
2023-05-01T11:55:21.884Z,19.10
2023-05-01T11:57:52.620Z,19.10
2023-05-01T12:00:42.205Z,19.10
2023-05-01T12:03:12.024Z,19.20
2023-05-01T12:05:43.705Z,19.20
2023-05-01T12:08:21.834Z,19.20
2023-05-01T12:10:52.339Z,19.20
2023-05-01T12:13:20.023Z,19.20
2023-05-01T12:15:48.395Z,19.20
2023-05-01T12:18:17.199Z,19.30
2023-05-01T12:20:48.791Z,19.40
2023-05-01T12:23:16.507Z,19.40
2023-05-01T12:25:44.906Z,19.50
2023-05-01T12:28:18.321Z,19.60
2023-05-01T12:30:47.059Z,19.60
2023-05-01T12:33:17.846Z,19.60
2023-05-01T12:35:46.756Z,19.50
2023-05-01T12:38:21.539Z,19.60
2023-05-01T12:40:54.227Z,19.60
2023-05-01T12:43:22.902Z,19.60
2023-05-01T12:45:53.368Z,19.80
2023-05-01T12:48:20.658Z,19.90
2023-05-01T12:50:54.394Z,19.90
2023-05-01T12:53:23.255Z,20.00
2023-05-01T12:55:56.678Z,19.90
2023-05-01T12:58:24.286Z,19.90
2023-05-01T13:00:53.593Z,19.90
2023-05-01T13:03:26.001Z,20.10
2023-05-01T13:05:55.089Z,20.30
2023-05-01T13:08:40.175Z,20.40
2023-05-01T13:11:12.930Z,20.60
2023-05-01T13:13:40.350Z,20.60
2023-05-01T13:16:16.957Z,20.60
2023-05-01T13:18:47.062Z,20.60
2023-05-01T13:21:16.704Z,20.80
2023-05-01T13:23:53.239Z,21.00
2023-05-01T13:26:29.060Z,21.00
2023-05-01T13:28:57.475Z,21.10
2023-05-01T13:31:24.324Z,21.10
2023-05-01T13:33:52.853Z,21.10
2023-05-01T13:36:26.270Z,21.40
2023-05-01T13:38:56.092Z,21.70
2023-05-01T13:41:25.738Z,21.80
2023-05-01T13:43:54.824Z,21.80
2023-05-01T13:46:23.413Z,21.90
2023-05-01T13:48:50.386Z,21.90
2023-05-01T13:51:25.236Z,22.00
2023-05-01T13:53:53.948Z,22.10
2023-05-01T13:56:21.874Z,22.20
2023-05-01T13:58:50.281Z,22.30
2023-05-01T14:01:19.219Z,22.40
2023-05-01T14:03:46.672Z,22.40
2023-05-01T14:06:15.930Z,22.40
2023-05-01T14:08:44.567Z,22.20
2023-05-01T14:11:11.829Z,22.20
2023-05-01T14:13:40.985Z,22.30
2023-05-01T14:16:11.857Z,22.60
2023-05-01T14:18:45.864Z,22.60
2023-05-01T14:21:21.058Z,22.70
2023-05-01T14:23:47.864Z,22.80
2023-05-01T14:26:18.388Z,23.00
2023-05-01T14:28:47.973Z,23.20
2023-05-01T14:31:17.953Z,23.20
2023-05-01T14:33:44.843Z,23.20
2023-05-01T14:36:12.567Z,23.10
2023-05-01T14:38:40.395Z,23.00
2023-05-01T14:41:09.373Z,23.00
2023-05-01T14:43:41.155Z,23.20
2023-05-01T14:46:08.085Z,23.40
2023-05-01T14:48:35.938Z,23.60
2023-05-01T14:51:12.758Z,23.70
2023-05-01T14:53:42.067Z,23.70
2023-05-01T14:56:09.070Z,23.70
2023-05-01T14:58:36.247Z,23.60
2023-05-01T15:01:03.358Z,23.70
2023-05-01T15:03:30.692Z,23.80
2023-05-01T15:05:57.741Z,23.50
2023-05-01T15:08:24.829Z,23.50
2023-05-01T15:10:52.975Z,23.70
2023-05-01T15:13:21.254Z,23.70
2023-05-01T15:15:48.198Z,23.80
2023-05-01T15:18:15.425Z,23.90
2023-05-01T15:20:43.234Z,23.90
2023-05-01T15:23:10.641Z,24.20
2023-05-01T15:25:37.484Z,24.20
2023-05-01T15:28:04.473Z,24.30
2023-05-01T15:30:31.635Z,24.40
2023-05-01T15:32:58.663Z,24.50
2023-05-01T15:35:26.267Z,24.60
2023-05-01T15:37:54.027Z,24.50
2023-05-01T15:40:21.036Z,24.50
2023-05-01T15:42:48.207Z,24.60
2023-05-01T15:45:15.118Z,24.70
2023-05-01T15:47:42.040Z,24.70
2023-05-01T15:50:10.901Z,25.00
2023-05-01T15:52:38.322Z,25.20
2023-05-01T15:55:05.980Z,25.10
2023-05-01T15:57:34.140Z,25.30
2023-05-01T16:00:01.229Z,25.30
2023-05-01T16:02:32.840Z,25.40
2023-05-01T16:05:00.287Z,25.50
2023-05-01T16:07:29.164Z,25.60
2023-05-01T16:09:57.240Z,25.70
2023-05-01T16:12:24.664Z,25.70
2023-05-01T16:14:51.571Z,25.80
2023-05-01T16:17:19.576Z,26.10
2023-05-01T16:19:47.014Z,26.40
2023-05-01T16:22:14.671Z,26.30
2023-05-01T16:24:41.683Z,26.00
2023-05-01T16:27:12.175Z,26.20
2023-05-01T16:29:39.089Z,26.50
2023-05-01T16:32:06.195Z,26.50
2023-05-01T16:34:33.295Z,26.70
2023-05-01T16:37:00.127Z,26.60
2023-05-01T16:39:26.935Z,26.20
2023-05-01T16:41:55.028Z,26.00
2023-05-01T16:44:22.806Z,26.10
2023-05-01T16:46:54.250Z,26.10
2023-05-01T16:49:21.956Z,26.00
2023-05-01T16:51:49.220Z,25.90
2023-05-01T16:54:16.903Z,25.60
2023-05-01T16:56:43.795Z,25.80
2023-05-01T16:59:10.619Z,25.80
2023-05-01T17:01:37.526Z,25.80
2023-05-01T17:04:04.610Z,25.90
2023-05-01T17:06:32.489Z,25.90
2023-05-01T17:08:59.304Z,25.80
2023-05-01T17:11:28.595Z,25.80
2023-05-01T17:13:56.604Z,25.40
2023-05-01T17:16:23.460Z,25.30
2023-05-01T17:18:50.365Z,24.90
2023-05-01T17:21:17.243Z,24.70
2023-05-01T17:23:44.581Z,24.70
2023-05-01T17:26:11.509Z,24.70
2023-05-01T17:28:39.152Z,24.60
2023-05-01T17:31:06.015Z,24.40
2023-05-01T17:33:32.976Z,24.30
2023-05-01T17:36:00.758Z,24.30
2023-05-01T17:38:27.643Z,24.30
2023-05-01T17:40:54.415Z,24.20
2023-05-01T17:43:21.276Z,24.00
2023-05-01T17:45:50.459Z,24.20
2023-05-01T17:48:19.629Z,24.10
2023-05-01T17:50:46.654Z,24.00
2023-05-01T17:53:13.535Z,23.70
2023-05-01T17:55:40.393Z,23.10
2023-05-01T17:58:07.188Z,23.00
2023-05-01T18:00:35.164Z,23.20
2023-05-01T18:03:02.168Z,23.10
2023-05-01T18:05:29.070Z,22.80
2023-05-01T18:07:56.032Z,22.60
2023-05-01T18:10:22.864Z,22.40
2023-05-01T18:12:49.895Z,22.50
2023-05-01T18:15:22.217Z,22.50
2023-05-01T18:17:50.072Z,22.50
2023-05-01T18:20:17.366Z,22.30
2023-05-01T18:22:44.397Z,22.20
2023-05-01T18:25:11.579Z,22.10
2023-05-01T18:27:39.066Z,21.90
2023-05-01T18:30:06.669Z,21.90
2023-05-01T18:32:46.300Z,22.00
2023-05-01T18:35:15.199Z,21.90
2023-05-01T18:37:42.932Z,21.80
2023-05-01T18:40:10.355Z,21.90
2023-05-01T18:42:37.145Z,21.80
2023-05-01T18:45:04.346Z,21.70
2023-05-01T18:47:32.529Z,21.40
2023-05-01T18:49:59.834Z,21.30
2023-05-01T18:52:29.186Z,21.10
2023-05-01T18:54:55.993Z,21.00
2023-05-01T18:57:23.021Z,21.00
2023-05-01T18:59:49.909Z,20.90
2023-05-01T19:02:16.709Z,20.80
2023-05-01T19:04:56.885Z,20.70
2023-05-01T19:07:25.945Z,20.60
2023-05-01T19:09:52.792Z,20.60
2023-05-01T19:12:19.591Z,20.40
2023-05-01T19:14:46.395Z,20.10
2023-05-01T19:17:13.181Z,20.20
2023-05-01T19:19:39.963Z,20.20
2023-05-01T19:22:07.273Z,20.00
2023-05-01T19:24:34.067Z,19.80
2023-05-01T19:27:02.972Z,19.60
2023-05-01T19:29:33.539Z,19.60
2023-05-01T19:32:00.716Z,19.80
2023-05-01T19:34:28.332Z,20.00
2023-05-01T19:36:56.743Z,20.00
2023-05-01T19:39:23.950Z,19.90
2023-05-01T19:41:50.996Z,19.70
2023-05-01T19:44:18.088Z,19.30
2023-05-01T19:46:45.129Z,19.40
2023-05-01T19:49:12.185Z,19.20
2023-05-01T19:51:39.048Z,19.30
2023-05-01T19:54:06.030Z,19.40
2023-05-01T19:56:32.902Z,19.40
2023-05-01T19:58:59.711Z,19.30
2023-05-01T20:01:26.606Z,19.20
2023-05-01T20:03:53.502Z,19.20
2023-05-01T20:06:20.451Z,18.80
2023-05-01T20:08:48.472Z,18.40
2023-05-01T20:11:15.352Z,18.60
2023-05-01T20:13:42.375Z,18.70
2023-05-01T20:16:10.166Z,18.70
2023-05-01T20:18:37.330Z,18.70
2023-05-01T20:21:06.073Z,18.60
2023-05-01T20:23:33.856Z,18.00
2023-05-01T20:26:00.814Z,18.10
2023-05-01T20:28:28.585Z,18.00
2023-05-01T20:30:56.208Z,18.00
2023-05-01T20:33:23.069Z,18.00
2023-05-01T20:35:51.204Z,17.90
2023-05-01T20:38:18.092Z,17.80
2023-05-01T20:40:44.965Z,17.80
2023-05-01T20:43:11.888Z,17.70
2023-05-01T20:45:39.510Z,17.80
2023-05-01T20:48:06.468Z,17.60
2023-05-01T20:50:33.319Z,17.50
2023-05-01T20:53:00.297Z,17.40
2023-05-01T20:55:28.088Z,17.20
2023-05-01T20:57:54.889Z,17.10
2023-05-01T21:00:21.717Z,17.20
2023-05-01T21:02:48.642Z,17.20
2023-05-01T21:05:16.312Z,17.10
2023-05-01T21:07:43.130Z,17.10
2023-05-01T21:10:11.149Z,17.10
2023-05-01T21:12:37.946Z,17.00
2023-05-01T21:15:05.111Z,16.80
2023-05-01T21:17:36.694Z,16.70
2023-05-01T21:20:18.312Z,16.50
2023-05-01T21:22:46.270Z,16.30
2023-05-01T21:25:15.202Z,16.30
2023-05-01T21:27:42.527Z,16.10
2023-05-01T21:30:15.000Z,16.10
2023-05-01T21:32:42.240Z,16.10
2023-05-01T21:35:10.096Z,16.10
2023-05-01T21:37:37.386Z,16.00
2023-05-01T21:40:06.416Z,16.00
2023-05-01T21:42:39.899Z,16.00
2023-05-01T21:45:08.114Z,15.90
2023-05-01T21:47:40.614Z,15.90
2023-05-01T21:50:08.411Z,15.60
2023-05-01T21:52:35.561Z,15.50
2023-05-01T21:55:03.917Z,15.60
2023-05-01T21:57:31.735Z,15.50
2023-05-01T22:00:01.607Z,15.40
2023-05-01T22:02:34.931Z,15.30
2023-05-01T22:05:01.820Z,15.30
2023-05-01T22:07:28.604Z,15.30
2023-05-01T22:09:55.387Z,15.30
2023-05-01T22:12:22.176Z,15.20
2023-05-01T22:14:49.098Z,15.10
2023-05-01T22:17:17.480Z,15.00
2023-05-01T22:19:44.534Z,14.80
2023-05-01T22:22:11.385Z,14.80
2023-05-01T22:24:38.244Z,14.80
2023-05-01T22:27:05.034Z,14.80
2023-05-01T22:29:31.781Z,14.70
2023-05-01T22:31:58.593Z,14.60
2023-05-01T22:34:25.450Z,14.60
2023-05-01T22:36:52.254Z,14.40
2023-05-01T22:39:19.111Z,14.40
2023-05-01T22:41:45.927Z,14.40
2023-05-01T22:44:12.661Z,14.30
2023-05-01T22:46:39.472Z,14.30
2023-05-01T22:49:06.207Z,14.10
2023-05-01T22:51:33.389Z,14.00
2023-05-01T22:54:00.123Z,14.00
2023-05-01T22:56:27.344Z,13.90
2023-05-01T22:58:55.571Z,13.80
2023-05-01T23:01:27.071Z,13.60
2023-05-01T23:03:54.836Z,13.60
2023-05-01T23:06:22.068Z,13.60
2023-05-01T23:08:53.488Z,13.70
2023-05-01T23:11:21.390Z,13.50
2023-05-01T23:13:49.948Z,13.50
2023-05-01T23:16:17.125Z,13.40
2023-05-01T23:18:44.869Z,13.20
2023-05-01T23:21:13.048Z,13.20
2023-05-01T23:23:44.844Z,13.20
2023-05-01T23:26:25.084Z,13.10
2023-05-01T23:28:52.986Z,13.10
2023-05-01T23:31:27.049Z,13.00
2023-05-01T23:33:54.775Z,13.00
2023-05-01T23:36:21.658Z,13.10
2023-05-01T23:38:48.468Z,13.10
2023-05-01T23:41:15.454Z,13.00
2023-05-01T23:43:42.468Z,12.90
2023-05-01T23:46:09.297Z,12.80
2023-05-01T23:48:36.318Z,12.80
2023-05-01T23:51:03.284Z,12.80
2023-05-01T23:53:30.306Z,12.80
2023-05-01T23:55:57.118Z,12.80
2023-05-01T23:58:24.484Z,12.80
